sensor_id;sensor_type;location;lat;lon;timestamp;P1;durP1;ratioP1;P2;durP2;ratioP2
6825;SDS011;3451;52.476;13.316;2023-12-20T00:01:41;3.50;;;3.00;;
6825;SDS011;3451;52.476;13.316;2023-12-20T00:04:08;3.47;;;3.17;;
6825;SDS011;3451;52.476;13.316;2023-12-20T00:06:34;4.63;;;3.30;;
6825;SDS011;3451;52.476;13.316;2023-12-20T00:09:00;3.73;;;3.20;;
6825;SDS011;3451;52.476;13.316;2023-12-20T00:11:27;3.30;;;2.90;;
6825;SDS011;3451;52.476;13.316;2023-12-20T00:13:53;3.50;;;2.90;;
6825;SDS011;3451;52.476;13.316;2023-12-20T00:16:19;3.27;;;2.90;;
6825;SDS011;3451;52.476;13.316;2023-12-20T00:18:46;3.77;;;3.00;;
6825;SDS011;3451;52.476;13.316;2023-12-20T00:21:12;3.60;;;2.90;;
6825;SDS011;3451;52.476;13.316;2023-12-20T00:23:39;3.57;;;2.87;;
6825;SDS011;3451;52.476;13.316;2023-12-20T00:26:05;3.20;;;2.90;;
6825;SDS011;3451;52.476;13.316;2023-12-20T00:28:31;3.93;;;2.80;;
6825;SDS011;3451;52.476;13.316;2023-12-20T00:30:58;3.57;;;2.50;;
6825;SDS011;3451;52.476;13.316;2023-12-20T00:33:24;3.07;;;2.63;;
6825;SDS011;3451;52.476;13.316;2023-12-20T00:35:51;3.00;;;2.43;;
6825;SDS011;3451;52.476;13.316;2023-12-20T00:38:17;3.83;;;2.70;;
6825;SDS011;3451;52.476;13.316;2023-12-20T00:40:44;2.83;;;2.53;;
6825;SDS011;3451;52.476;13.316;2023-12-20T00:43:10;2.70;;;2.50;;
6825;SDS011;3451;52.476;13.316;2023-12-20T00:45:37;3.10;;;2.80;;
6825;SDS011;3451;52.476;13.316;2023-12-20T00:48:03;3.07;;;2.60;;
6825;SDS011;3451;52.476;13.316;2023-12-20T00:50:29;3.30;;;2.50;;
6825;SDS011;3451;52.476;13.316;2023-12-20T00:52:56;3.33;;;2.40;;
6825;SDS011;3451;52.476;13.316;2023-12-20T00:55:22;2.77;;;2.53;;
6825;SDS011;3451;52.476;13.316;2023-12-20T00:57:48;3.00;;;2.70;;
6825;SDS011;3451;52.476;13.316;2023-12-20T01:00:15;2.60;;;2.40;;
6825;SDS011;3451;52.476;13.316;2023-12-20T01:02:41;3.03;;;2.73;;
6825;SDS011;3451;52.476;13.316;2023-12-20T01:05:08;3.07;;;2.77;;
6825;SDS011;3451;52.476;13.316;2023-12-20T01:07:35;3.27;;;2.87;;
6825;SDS011;3451;52.476;13.316;2023-12-20T01:10:01;3.23;;;2.80;;
6825;SDS011;3451;52.476;13.316;2023-12-20T01:12:28;7.23;;;3.37;;
6825;SDS011;3451;52.476;13.316;2023-12-20T01:14:54;4.03;;;2.90;;
6825;SDS011;3451;52.476;13.316;2023-12-20T01:17:21;3.67;;;3.10;;
6825;SDS011;3451;52.476;13.316;2023-12-20T01:19:47;3.97;;;2.73;;
6825;SDS011;3451;52.476;13.316;2023-12-20T01:22:13;3.20;;;2.87;;
6825;SDS011;3451;52.476;13.316;2023-12-20T01:24:40;3.20;;;2.90;;
6825;SDS011;3451;52.476;13.316;2023-12-20T01:27:06;3.33;;;2.80;;
6825;SDS011;3451;52.476;13.316;2023-12-20T01:29:33;3.20;;;2.83;;
6825;SDS011;3451;52.476;13.316;2023-12-20T01:31:59;3.73;;;2.90;;
6825;SDS011;3451;52.476;13.316;2023-12-20T01:34:25;3.10;;;2.67;;
6825;SDS011;3451;52.476;13.316;2023-12-20T01:36:52;4.17;;;3.23;;
6825;SDS011;3451;52.476;13.316;2023-12-20T01:39:18;3.63;;;2.87;;
6825;SDS011;3451;52.476;13.316;2023-12-20T01:41:55;3.10;;;2.80;;
6825;SDS011;3451;52.476;13.316;2023-12-20T01:44:21;3.13;;;2.83;;
6825;SDS011;3451;52.476;13.316;2023-12-20T01:46:47;3.30;;;2.60;;
6825;SDS011;3451;52.476;13.316;2023-12-20T01:49:14;3.27;;;2.77;;
6825;SDS011;3451;52.476;13.316;2023-12-20T01:51:41;3.10;;;2.50;;
6825;SDS011;3451;52.476;13.316;2023-12-20T01:54:08;2.80;;;2.50;;
6825;SDS011;3451;52.476;13.316;2023-12-20T01:56:34;3.13;;;2.80;;
6825;SDS011;3451;52.476;13.316;2023-12-20T01:59:00;3.33;;;2.63;;
6825;SDS011;3451;52.476;13.316;2023-12-20T02:01:27;3.23;;;2.93;;
6825;SDS011;3451;52.476;13.316;2023-12-20T02:03:55;3.17;;;2.87;;
6825;SDS011;3451;52.476;13.316;2023-12-20T02:06:21;3.00;;;2.70;;
6825;SDS011;3451;52.476;13.316;2023-12-20T02:08:49;3.13;;;2.83;;
6825;SDS011;3451;52.476;13.316;2023-12-20T02:11:16;3.40;;;3.10;;
6825;SDS011;3451;52.476;13.316;2023-12-20T02:13:42;3.63;;;2.80;;
6825;SDS011;3451;52.476;13.316;2023-12-20T02:16:08;3.20;;;2.90;;
6825;SDS011;3451;52.476;13.316;2023-12-20T02:18:35;3.40;;;2.97;;
6825;SDS011;3451;52.476;13.316;2023-12-20T02:21:03;3.50;;;3.17;;
6825;SDS011;3451;52.476;13.316;2023-12-20T02:23:29;4.33;;;3.30;;
6825;SDS011;3451;52.476;13.316;2023-12-20T02:25:56;4.00;;;3.60;;
6825;SDS011;3451;52.476;13.316;2023-12-20T02:28:22;4.30;;;3.90;;
6825;SDS011;3451;52.476;13.316;2023-12-20T02:30:49;4.20;;;3.80;;
6825;SDS011;3451;52.476;13.316;2023-12-20T02:33:16;4.80;;;4.03;;
6825;SDS011;3451;52.476;13.316;2023-12-20T02:35:42;4.73;;;3.90;;
6825;SDS011;3451;52.476;13.316;2023-12-20T02:38:09;5.40;;;3.97;;
6825;SDS011;3451;52.476;13.316;2023-12-20T02:40:35;4.33;;;3.93;;
6825;SDS011;3451;52.476;13.316;2023-12-20T02:43:01;4.60;;;3.93;;
6825;SDS011;3451;52.476;13.316;2023-12-20T02:45:28;4.17;;;3.63;;
6825;SDS011;3451;52.476;13.316;2023-12-20T02:47:55;7.87;;;4.27;;
6825;SDS011;3451;52.476;13.316;2023-12-20T02:50:21;6.37;;;4.43;;
6825;SDS011;3451;52.476;13.316;2023-12-20T02:52:47;5.30;;;4.40;;
6825;SDS011;3451;52.476;13.316;2023-12-20T02:55:14;5.93;;;4.47;;
6825;SDS011;3451;52.476;13.316;2023-12-20T02:57:40;6.23;;;4.87;;
6825;SDS011;3451;52.476;13.316;2023-12-20T03:00:08;7.57;;;4.37;;
6825;SDS011;3451;52.476;13.316;2023-12-20T03:02:35;5.17;;;4.40;;
6825;SDS011;3451;52.476;13.316;2023-12-20T03:05:01;5.80;;;4.40;;
6825;SDS011;3451;52.476;13.316;2023-12-20T03:07:28;7.27;;;4.70;;
6825;SDS011;3451;52.476;13.316;2023-12-20T03:09:55;5.70;;;4.43;;
6825;SDS011;3451;52.476;13.316;2023-12-20T03:12:40;5.43;;;4.47;;
6825;SDS011;3451;52.476;13.316;2023-12-20T03:15:07;7.13;;;4.27;;
6825;SDS011;3451;52.476;13.316;2023-12-20T03:17:33;6.03;;;4.27;;
6825;SDS011;3451;52.476;13.316;2023-12-20T03:20:00;8.83;;;4.30;;
6825;SDS011;3451;52.476;13.316;2023-12-20T03:22:26;7.63;;;3.97;;
6825;SDS011;3451;52.476;13.316;2023-12-20T03:24:52;7.20;;;4.00;;
6825;SDS011;3451;52.476;13.316;2023-12-20T03:27:19;5.80;;;3.90;;
6825;SDS011;3451;52.476;13.316;2023-12-20T03:29:45;5.23;;;3.90;;
6825;SDS011;3451;52.476;13.316;2023-12-20T03:32:11;6.00;;;3.77;;
6825;SDS011;3451;52.476;13.316;2023-12-20T03:34:38;5.17;;;3.33;;
6825;SDS011;3451;52.476;13.316;2023-12-20T03:37:04;8.27;;;3.40;;
6825;SDS011;3451;52.476;13.316;2023-12-20T03:39:31;4.20;;;3.30;;
6825;SDS011;3451;52.476;13.316;2023-12-20T03:41:57;5.97;;;3.30;;
6825;SDS011;3451;52.476;13.316;2023-12-20T03:44:23;6.73;;;3.07;;
6825;SDS011;3451;52.476;13.316;2023-12-20T03:46:50;6.17;;;2.83;;
6825;SDS011;3451;52.476;13.316;2023-12-20T03:49:16;5.73;;;3.33;;
6825;SDS011;3451;52.476;13.316;2023-12-20T03:51:42;9.73;;;2.80;;
6825;SDS011;3451;52.476;13.316;2023-12-20T03:54:09;7.60;;;2.50;;
6825;SDS011;3451;52.476;13.316;2023-12-20T03:56:35;4.53;;;2.63;;
6825;SDS011;3451;52.476;13.316;2023-12-20T03:59:01;5.90;;;2.33;;
6825;SDS011;3451;52.476;13.316;2023-12-20T04:01:28;5.50;;;2.63;;
6825;SDS011;3451;52.476;13.316;2023-12-20T04:03:54;6.80;;;2.60;;
6825;SDS011;3451;52.476;13.316;2023-12-20T04:06:21;5.83;;;2.13;;
6825;SDS011;3451;52.476;13.316;2023-12-20T04:08:47;6.93;;;2.30;;
6825;SDS011;3451;52.476;13.316;2023-12-20T04:11:13;8.73;;;2.47;;
6825;SDS011;3451;52.476;13.316;2023-12-20T04:13:40;4.47;;;2.30;;
6825;SDS011;3451;52.476;13.316;2023-12-20T04:16:06;5.93;;;2.03;;
6825;SDS011;3451;52.476;13.316;2023-12-20T04:18:32;8.90;;;2.20;;
6825;SDS011;3451;52.476;13.316;2023-12-20T04:20:59;5.57;;;2.00;;
6825;SDS011;3451;52.476;13.316;2023-12-20T04:23:25;7.47;;;2.07;;
6825;SDS011;3451;52.476;13.316;2023-12-20T04:25:51;10.00;;;3.00;;
6825;SDS011;3451;52.476;13.316;2023-12-20T04:28:18;6.30;;;1.93;;
6825;SDS011;3451;52.476;13.316;2023-12-20T04:30:44;6.80;;;2.73;;
6825;SDS011;3451;52.476;13.316;2023-12-20T04:33:11;11.40;;;2.43;;
6825;SDS011;3451;52.476;13.316;2023-12-20T04:35:37;5.20;;;1.70;;
6825;SDS011;3451;52.476;13.316;2023-12-20T04:38:03;8.97;;;2.10;;
6825;SDS011;3451;52.476;13.316;2023-12-20T04:40:30;8.57;;;1.97;;
6825;SDS011;3451;52.476;13.316;2023-12-20T04:42:56;6.30;;;2.67;;
6825;SDS011;3451;52.476;13.316;2023-12-20T04:45:23;5.53;;;2.20;;
6825;SDS011;3451;52.476;13.316;2023-12-20T04:47:51;6.17;;;1.80;;
6825;SDS011;3451;52.476;13.316;2023-12-20T04:50:17;7.23;;;1.93;;
6825;SDS011;3451;52.476;13.316;2023-12-20T04:52:45;7.10;;;2.30;;
6825;SDS011;3451;52.476;13.316;2023-12-20T04:55:11;8.27;;;2.40;;
6825;SDS011;3451;52.476;13.316;2023-12-20T04:57:37;10.93;;;2.10;;
6825;SDS011;3451;52.476;13.316;2023-12-20T05:00:04;6.63;;;1.87;;
6825;SDS011;3451;52.476;13.316;2023-12-20T05:02:30;7.87;;;2.10;;
6825;SDS011;3451;52.476;13.316;2023-12-20T05:04:57;8.17;;;2.57;;
6825;SDS011;3451;52.476;13.316;2023-12-20T05:07:23;13.50;;;2.10;;
6825;SDS011;3451;52.476;13.316;2023-12-20T05:09:50;7.40;;;2.10;;
6825;SDS011;3451;52.476;13.316;2023-12-20T05:12:16;4.70;;;2.00;;
6825;SDS011;3451;52.476;13.316;2023-12-20T05:14:42;10.27;;;2.10;;
6825;SDS011;3451;52.476;13.316;2023-12-20T05:17:09;11.97;;;2.60;;
6825;SDS011;3451;52.476;13.316;2023-12-20T05:19:35;8.93;;;2.03;;
6825;SDS011;3451;52.476;13.316;2023-12-20T05:22:02;6.80;;;2.37;;
6825;SDS011;3451;52.476;13.316;2023-12-20T05:24:28;7.50;;;2.03;;
6825;SDS011;3451;52.476;13.316;2023-12-20T05:26:55;8.10;;;1.53;;
6825;SDS011;3451;52.476;13.316;2023-12-20T05:29:21;4.47;;;1.60;;
6825;SDS011;3451;52.476;13.316;2023-12-20T05:31:48;8.00;;;1.93;;
6825;SDS011;3451;52.476;13.316;2023-12-20T05:34:14;7.97;;;1.90;;
6825;SDS011;3451;52.476;13.316;2023-12-20T05:36:41;5.97;;;1.60;;
6825;SDS011;3451;52.476;13.316;2023-12-20T05:39:07;11.07;;;2.13;;
6825;SDS011;3451;52.476;13.316;2023-12-20T05:41:33;8.50;;;1.80;;
6825;SDS011;3451;52.476;13.316;2023-12-20T05:44:00;8.03;;;2.07;;
6825;SDS011;3451;52.476;13.316;2023-12-20T05:46:26;11.03;;;1.67;;
6825;SDS011;3451;52.476;13.316;2023-12-20T05:48:53;11.00;;;2.57;;
6825;SDS011;3451;52.476;13.316;2023-12-20T05:51:20;3.97;;;1.63;;
6825;SDS011;3451;52.476;13.316;2023-12-20T05:53:46;10.60;;;1.77;;
6825;SDS011;3451;52.476;13.316;2023-12-20T05:56:12;8.63;;;1.70;;
6825;SDS011;3451;52.476;13.316;2023-12-20T05:58:39;5.93;;;1.80;;
6825;SDS011;3451;52.476;13.316;2023-12-20T06:01:06;7.57;;;1.87;;
6825;SDS011;3451;52.476;13.316;2023-12-20T06:03:34;10.43;;;1.90;;
6825;SDS011;3451;52.476;13.316;2023-12-20T06:06:06;7.60;;;1.93;;
6825;SDS011;3451;52.476;13.316;2023-12-20T06:08:42;7.00;;;1.90;;
6825;SDS011;3451;52.476;13.316;2023-12-20T06:11:09;10.27;;;2.03;;
6825;SDS011;3451;52.476;13.316;2023-12-20T06:13:35;8.40;;;2.20;;
6825;SDS011;3451;52.476;13.316;2023-12-20T06:16:02;4.43;;;1.50;;
6825;SDS011;3451;52.476;13.316;2023-12-20T06:18:29;5.83;;;1.80;;
6825;SDS011;3451;52.476;13.316;2023-12-20T06:20:55;7.73;;;2.50;;
6825;SDS011;3451;52.476;13.316;2023-12-20T06:23:22;10.07;;;2.90;;
6825;SDS011;3451;52.476;13.316;2023-12-20T06:25:48;8.37;;;2.20;;
6825;SDS011;3451;52.476;13.316;2023-12-20T06:28:14;6.90;;;1.70;;
6825;SDS011;3451;52.476;13.316;2023-12-20T06:30:41;11.03;;;2.50;;
6825;SDS011;3451;52.476;13.316;2023-12-20T06:33:07;9.50;;;2.23;;
6825;SDS011;3451;52.476;13.316;2023-12-20T06:35:36;6.33;;;2.07;;
6825;SDS011;3451;52.476;13.316;2023-12-20T06:38:02;9.00;;;1.90;;
6825;SDS011;3451;52.476;13.316;2023-12-20T06:40:29;5.63;;;2.00;;
6825;SDS011;3451;52.476;13.316;2023-12-20T06:42:55;9.00;;;1.90;;
6825;SDS011;3451;52.476;13.316;2023-12-20T06:45:34;9.17;;;2.67;;
6825;SDS011;3451;52.476;13.316;2023-12-20T06:48:00;7.73;;;1.83;;
6825;SDS011;3451;52.476;13.316;2023-12-20T06:50:27;6.00;;;2.23;;
6825;SDS011;3451;52.476;13.316;2023-12-20T06:52:53;9.13;;;2.47;;
6825;SDS011;3451;52.476;13.316;2023-12-20T06:55:20;8.10;;;2.10;;
6825;SDS011;3451;52.476;13.316;2023-12-20T06:57:46;7.80;;;2.13;;
6825;SDS011;3451;52.476;13.316;2023-12-20T07:00:13;6.53;;;2.27;;
6825;SDS011;3451;52.476;13.316;2023-12-20T07:02:40;6.67;;;2.50;;
6825;SDS011;3451;52.476;13.316;2023-12-20T07:05:06;7.03;;;2.13;;
6825;SDS011;3451;52.476;13.316;2023-12-20T07:07:32;11.43;;;2.50;;
6825;SDS011;3451;52.476;13.316;2023-12-20T07:09:59;11.30;;;2.10;;
6825;SDS011;3451;52.476;13.316;2023-12-20T07:12:25;10.77;;;2.27;;
6825;SDS011;3451;52.476;13.316;2023-12-20T07:14:52;6.70;;;2.07;;
6825;SDS011;3451;52.476;13.316;2023-12-20T07:17:18;6.23;;;1.97;;
6825;SDS011;3451;52.476;13.316;2023-12-20T07:19:44;9.30;;;1.90;;
6825;SDS011;3451;52.476;13.316;2023-12-20T07:22:11;8.37;;;2.20;;
6825;SDS011;3451;52.476;13.316;2023-12-20T07:24:37;9.83;;;1.90;;
6825;SDS011;3451;52.476;13.316;2023-12-20T07:27:04;8.83;;;1.83;;
6825;SDS011;3451;52.476;13.316;2023-12-20T07:29:36;9.07;;;2.77;;
6825;SDS011;3451;52.476;13.316;2023-12-20T07:32:03;11.50;;;2.40;;
6825;SDS011;3451;52.476;13.316;2023-12-20T07:34:29;8.40;;;2.23;;
6825;SDS011;3451;52.476;13.316;2023-12-20T07:36:57;8.73;;;2.33;;
6825;SDS011;3451;52.476;13.316;2023-12-20T07:39:23;13.27;;;2.53;;
6825;SDS011;3451;52.476;13.316;2023-12-20T07:41:50;11.67;;;2.67;;
6825;SDS011;3451;52.476;13.316;2023-12-20T07:44:16;10.83;;;2.30;;
6825;SDS011;3451;52.476;13.316;2023-12-20T07:46:43;5.80;;;2.13;;
6825;SDS011;3451;52.476;13.316;2023-12-20T07:49:09;6.20;;;2.30;;
6825;SDS011;3451;52.476;13.316;2023-12-20T07:51:36;7.77;;;2.10;;
6825;SDS011;3451;52.476;13.316;2023-12-20T07:54:02;12.37;;;2.50;;
6825;SDS011;3451;52.476;13.316;2023-12-20T07:56:29;10.63;;;1.97;;
6825;SDS011;3451;52.476;13.316;2023-12-20T07:58:56;8.83;;;1.93;;
6825;SDS011;3451;52.476;13.316;2023-12-20T08:01:25;7.70;;;2.00;;
6825;SDS011;3451;52.476;13.316;2023-12-20T08:03:52;10.57;;;2.70;;
6825;SDS011;3451;52.476;13.316;2023-12-20T08:06:18;15.07;;;1.97;;
6825;SDS011;3451;52.476;13.316;2023-12-20T08:08:45;7.70;;;2.10;;
6825;SDS011;3451;52.476;13.316;2023-12-20T08:11:18;9.07;;;2.13;;
6825;SDS011;3451;52.476;13.316;2023-12-20T08:13:44;10.10;;;3.47;;
6825;SDS011;3451;52.476;13.316;2023-12-20T08:16:10;10.97;;;2.23;;
6825;SDS011;3451;52.476;13.316;2023-12-20T08:18:39;7.57;;;2.37;;
6825;SDS011;3451;52.476;13.316;2023-12-20T08:21:06;10.07;;;2.30;;
6825;SDS011;3451;52.476;13.316;2023-12-20T08:23:35;8.73;;;2.10;;
6825;SDS011;3451;52.476;13.316;2023-12-20T08:26:05;10.37;;;2.20;;
6825;SDS011;3451;52.476;13.316;2023-12-20T08:28:31;9.73;;;2.50;;
6825;SDS011;3451;52.476;13.316;2023-12-20T08:30:58;7.03;;;2.50;;
6825;SDS011;3451;52.476;13.316;2023-12-20T08:33:25;3.70;;;1.80;;
6825;SDS011;3451;52.476;13.316;2023-12-20T08:35:51;8.17;;;2.67;;
6825;SDS011;3451;52.476;13.316;2023-12-20T08:38:17;7.17;;;1.90;;
6825;SDS011;3451;52.476;13.316;2023-12-20T08:40:44;9.23;;;2.10;;
6825;SDS011;3451;52.476;13.316;2023-12-20T08:43:10;10.77;;;2.10;;
6825;SDS011;3451;52.476;13.316;2023-12-20T08:45:37;8.90;;;2.00;;
6825;SDS011;3451;52.476;13.316;2023-12-20T08:48:03;7.83;;;2.33;;
6825;SDS011;3451;52.476;13.316;2023-12-20T08:50:34;10.03;;;2.13;;
6825;SDS011;3451;52.476;13.316;2023-12-20T08:53:01;8.17;;;2.10;;
6825;SDS011;3451;52.476;13.316;2023-12-20T08:55:27;10.47;;;2.63;;
6825;SDS011;3451;52.476;13.316;2023-12-20T08:57:55;10.53;;;2.20;;
6825;SDS011;3451;52.476;13.316;2023-12-20T09:00:21;8.40;;;2.43;;
6825;SDS011;3451;52.476;13.316;2023-12-20T09:02:50;10.40;;;1.97;;
6825;SDS011;3451;52.476;13.316;2023-12-20T09:05:16;7.83;;;2.43;;
6825;SDS011;3451;52.476;13.316;2023-12-20T09:07:43;7.37;;;2.03;;
6825;SDS011;3451;52.476;13.316;2023-12-20T09:10:10;7.80;;;2.10;;
6825;SDS011;3451;52.476;13.316;2023-12-20T09:12:36;9.27;;;2.23;;
6825;SDS011;3451;52.476;13.316;2023-12-20T09:15:06;9.80;;;1.97;;
6825;SDS011;3451;52.476;13.316;2023-12-20T09:17:32;8.50;;;2.40;;
6825;SDS011;3451;52.476;13.316;2023-12-20T09:19:59;11.47;;;2.30;;
6825;SDS011;3451;52.476;13.316;2023-12-20T09:22:26;7.90;;;1.87;;
6825;SDS011;3451;52.476;13.316;2023-12-20T09:24:52;7.40;;;1.90;;
6825;SDS011;3451;52.476;13.316;2023-12-20T09:27:19;6.57;;;1.70;;
6825;SDS011;3451;52.476;13.316;2023-12-20T09:29:45;7.80;;;2.00;;
6825;SDS011;3451;52.476;13.316;2023-12-20T09:32:12;7.73;;;2.27;;
6825;SDS011;3451;52.476;13.316;2023-12-20T09:34:38;8.00;;;2.23;;
6825;SDS011;3451;52.476;13.316;2023-12-20T09:37:04;14.97;;;2.70;;
6825;SDS011;3451;52.476;13.316;2023-12-20T09:39:31;9.43;;;2.17;;
6825;SDS011;3451;52.476;13.316;2023-12-20T09:42:01;8.20;;;2.20;;
6825;SDS011;3451;52.476;13.316;2023-12-20T09:44:28;10.17;;;2.10;;
6825;SDS011;3451;52.476;13.316;2023-12-20T09:46:55;7.63;;;2.00;;
6825;SDS011;3451;52.476;13.316;2023-12-20T09:49:22;10.47;;;2.13;;
6825;SDS011;3451;52.476;13.316;2023-12-20T09:51:53;8.20;;;2.10;;
6825;SDS011;3451;52.476;13.316;2023-12-20T09:54:20;7.93;;;2.17;;
6825;SDS011;3451;52.476;13.316;2023-12-20T09:56:47;10.30;;;2.73;;
6825;SDS011;3451;52.476;13.316;2023-12-20T09:59:13;11.10;;;2.40;;
6825;SDS011;3451;52.476;13.316;2023-12-20T10:01:40;9.67;;;2.20;;
6825;SDS011;3451;52.476;13.316;2023-12-20T10:04:07;16.27;;;2.50;;
6825;SDS011;3451;52.476;13.316;2023-12-20T10:06:55;6.23;;;1.83;;
6825;SDS011;3451;52.476;13.316;2023-12-20T10:09:22;6.73;;;2.30;;
6825;SDS011;3451;52.476;13.316;2023-12-20T10:11:50;8.77;;;2.27;;
6825;SDS011;3451;52.476;13.316;2023-12-20T10:14:20;10.27;;;2.50;;
6825;SDS011;3451;52.476;13.316;2023-12-20T10:16:49;10.73;;;2.20;;
6825;SDS011;3451;52.476;13.316;2023-12-20T10:19:19;12.67;;;2.27;;
6825;SDS011;3451;52.476;13.316;2023-12-20T10:21:46;5.33;;;2.03;;
6825;SDS011;3451;52.476;13.316;2023-12-20T10:24:19;13.50;;;2.23;;
6825;SDS011;3451;52.476;13.316;2023-12-20T10:26:45;9.60;;;2.20;;
6825;SDS011;3451;52.476;13.316;2023-12-20T10:29:11;8.30;;;2.13;;
6825;SDS011;3451;52.476;13.316;2023-12-20T10:31:38;13.70;;;2.60;;
6825;SDS011;3451;52.476;13.316;2023-12-20T10:34:09;7.30;;;2.37;;
6825;SDS011;3451;52.476;13.316;2023-12-20T10:36:35;10.40;;;2.10;;
6825;SDS011;3451;52.476;13.316;2023-12-20T10:39:02;8.97;;;2.50;;
6825;SDS011;3451;52.476;13.316;2023-12-20T10:41:30;11.83;;;2.63;;
6825;SDS011;3451;52.476;13.316;2023-12-20T10:44:03;7.83;;;2.30;;
6825;SDS011;3451;52.476;13.316;2023-12-20T10:46:33;11.07;;;2.67;;
6825;SDS011;3451;52.476;13.316;2023-12-20T10:49:02;13.97;;;2.37;;
6825;SDS011;3451;52.476;13.316;2023-12-20T10:51:28;15.37;;;3.00;;
6825;SDS011;3451;52.476;13.316;2023-12-20T10:53:58;10.90;;;2.37;;
6825;SDS011;3451;52.476;13.316;2023-12-20T10:56:24;9.50;;;3.20;;
6825;SDS011;3451;52.476;13.316;2023-12-20T10:58:51;11.93;;;3.10;;
6825;SDS011;3451;52.476;13.316;2023-12-20T11:01:18;8.60;;;2.80;;
6825;SDS011;3451;52.476;13.316;2023-12-20T11:03:48;16.27;;;2.80;;
6825;SDS011;3451;52.476;13.316;2023-12-20T11:11:42;11.50;;;2.70;;
6825;SDS011;3451;52.476;13.316;2023-12-20T11:14:18;10.80;;;2.47;;
6825;SDS011;3451;52.476;13.316;2023-12-20T11:16:46;11.00;;;2.50;;
6825;SDS011;3451;52.476;13.316;2023-12-20T11:19:20;8.20;;;2.70;;
6825;SDS011;3451;52.476;13.316;2023-12-20T11:21:47;8.83;;;2.23;;
6825;SDS011;3451;52.476;13.316;2023-12-20T11:24:13;7.23;;;2.53;;
6825;SDS011;3451;52.476;13.316;2023-12-20T11:26:41;12.60;;;2.57;;
6825;SDS011;3451;52.476;13.316;2023-12-20T11:29:31;13.73;;;2.63;;
6825;SDS011;3451;52.476;13.316;2023-12-20T11:32:41;10.00;;;2.43;;
6825;SDS011;3451;52.476;13.316;2023-12-20T11:34:48;9.63;;;2.47;;
6825;SDS011;3451;52.476;13.316;2023-12-20T11:37:15;9.43;;;2.80;;
6825;SDS011;3451;52.476;13.316;2023-12-20T11:39:43;10.23;;;2.43;;
6825;SDS011;3451;52.476;13.316;2023-12-20T11:42:10;11.47;;;2.73;;
6825;SDS011;3451;52.476;13.316;2023-12-20T11:44:36;6.20;;;2.00;;
6825;SDS011;3451;52.476;13.316;2023-12-20T11:47:03;8.13;;;2.03;;
6825;SDS011;3451;52.476;13.316;2023-12-20T11:49:30;10.00;;;2.57;;
6825;SDS011;3451;52.476;13.316;2023-12-20T11:51:57;7.40;;;2.33;;
6825;SDS011;3451;52.476;13.316;2023-12-20T11:54:24;8.07;;;2.40;;
6825;SDS011;3451;52.476;13.316;2023-12-20T11:56:50;10.97;;;2.73;;
6825;SDS011;3451;52.476;13.316;2023-12-20T11:59:16;10.23;;;2.90;;
6825;SDS011;3451;52.476;13.316;2023-12-20T12:01:49;9.33;;;2.83;;
6825;SDS011;3451;52.476;13.316;2023-12-20T12:04:16;15.13;;;2.80;;
6825;SDS011;3451;52.476;13.316;2023-12-20T12:06:44;10.77;;;2.67;;
6825;SDS011;3451;52.476;13.316;2023-12-20T12:09:11;10.73;;;2.57;;
6825;SDS011;3451;52.476;13.316;2023-12-20T12:11:37;8.40;;;2.47;;
6825;SDS011;3451;52.476;13.316;2023-12-20T12:14:04;7.67;;;2.63;;
6825;SDS011;3451;52.476;13.316;2023-12-20T12:16:30;10.23;;;2.60;;
6825;SDS011;3451;52.476;13.316;2023-12-20T12:18:57;7.67;;;2.13;;
6825;SDS011;3451;52.476;13.316;2023-12-20T12:21:24;7.03;;;2.07;;
6825;SDS011;3451;52.476;13.316;2023-12-20T12:24:08;9.03;;;2.47;;
6825;SDS011;3451;52.476;13.316;2023-12-20T12:26:34;7.73;;;2.27;;
6825;SDS011;3451;52.476;13.316;2023-12-20T12:29:01;7.50;;;2.30;;
6825;SDS011;3451;52.476;13.316;2023-12-20T12:31:27;8.43;;;2.47;;
6825;SDS011;3451;52.476;13.316;2023-12-20T12:33:54;7.17;;;1.87;;
6825;SDS011;3451;52.476;13.316;2023-12-20T12:36:20;8.27;;;2.27;;
6825;SDS011;3451;52.476;13.316;2023-12-20T12:38:47;11.63;;;2.73;;
6825;SDS011;3451;52.476;13.316;2023-12-20T12:41:13;7.67;;;2.30;;
6825;SDS011;3451;52.476;13.316;2023-12-20T12:43:41;11.10;;;2.47;;
6825;SDS011;3451;52.476;13.316;2023-12-20T12:46:07;9.23;;;2.70;;
6825;SDS011;3451;52.476;13.316;2023-12-20T12:48:34;10.13;;;2.10;;
6825;SDS011;3451;52.476;13.316;2023-12-20T12:51:00;8.10;;;2.53;;
6825;SDS011;3451;52.476;13.316;2023-12-20T12:53:27;8.53;;;2.47;;
6825;SDS011;3451;52.476;13.316;2023-12-20T12:55:53;8.20;;;2.20;;
6825;SDS011;3451;52.476;13.316;2023-12-20T12:58:20;8.70;;;2.90;;
6825;SDS011;3451;52.476;13.316;2023-12-20T13:00:48;7.73;;;2.00;;
6825;SDS011;3451;52.476;13.316;2023-12-20T13:03:14;6.17;;;2.40;;
6825;SDS011;3451;52.476;13.316;2023-12-20T13:05:41;10.40;;;2.90;;
6825;SDS011;3451;52.476;13.316;2023-12-20T13:08:11;6.73;;;2.30;;
6825;SDS011;3451;52.476;13.316;2023-12-20T13:10:38;6.77;;;2.37;;
6825;SDS011;3451;52.476;13.316;2023-12-20T13:13:04;11.83;;;3.40;;
6825;SDS011;3451;52.476;13.316;2023-12-20T13:15:31;10.73;;;2.63;;
6825;SDS011;3451;52.476;13.316;2023-12-20T13:17:57;5.70;;;2.40;;
6825;SDS011;3451;52.476;13.316;2023-12-20T13:20:24;9.43;;;2.40;;
6825;SDS011;3451;52.476;13.316;2023-12-20T13:22:50;5.10;;;2.53;;
6825;SDS011;3451;52.476;13.316;2023-12-20T13:25:17;6.60;;;2.47;;
6825;SDS011;3451;52.476;13.316;2023-12-20T13:27:43;6.57;;;3.00;;
6825;SDS011;3451;52.476;13.316;2023-12-20T13:30:10;7.87;;;2.63;;
6825;SDS011;3451;52.476;13.316;2023-12-20T13:32:36;5.20;;;2.30;;
6825;SDS011;3451;52.476;13.316;2023-12-20T13:35:03;8.03;;;1.60;;
6825;SDS011;3451;52.476;13.316;2023-12-20T13:37:30;5.00;;;2.10;;
6825;SDS011;3451;52.476;13.316;2023-12-20T13:39:57;5.60;;;1.37;;
6825;SDS011;3451;52.476;13.316;2023-12-20T13:42:24;2.13;;;1.13;;
6825;SDS011;3451;52.476;13.316;2023-12-20T13:44:53;2.60;;;1.20;;
6825;SDS011;3451;52.476;13.316;2023-12-20T13:47:19;4.10;;;1.30;;
6825;SDS011;3451;52.476;13.316;2023-12-20T13:49:48;5.73;;;1.40;;
6825;SDS011;3451;52.476;13.316;2023-12-20T13:52:14;5.03;;;1.27;;
6825;SDS011;3451;52.476;13.316;2023-12-20T13:54:41;3.97;;;1.40;;
6825;SDS011;3451;52.476;13.316;2023-12-20T13:57:07;2.63;;;1.60;;
6825;SDS011;3451;52.476;13.316;2023-12-20T13:59:47;4.73;;;1.57;;
6825;SDS011;3451;52.476;13.316;2023-12-20T14:02:13;4.43;;;1.37;;
6825;SDS011;3451;52.476;13.316;2023-12-20T14:04:40;4.10;;;1.20;;
6825;SDS011;3451;52.476;13.316;2023-12-20T14:07:09;3.93;;;1.20;;
6825;SDS011;3451;52.476;13.316;2023-12-20T14:09:38;3.53;;;1.20;;
6825;SDS011;3451;52.476;13.316;2023-12-20T14:12:04;2.83;;;0.90;;
6825;SDS011;3451;52.476;13.316;2023-12-20T14:14:31;2.60;;;0.97;;
6825;SDS011;3451;52.476;13.316;2023-12-20T14:16:57;2.80;;;1.20;;
6825;SDS011;3451;52.476;13.316;2023-12-20T14:19:23;2.30;;;0.80;;
6825;SDS011;3451;52.476;13.316;2023-12-20T14:21:50;1.70;;;0.73;;
6825;SDS011;3451;52.476;13.316;2023-12-20T14:24:16;4.77;;;1.37;;
6825;SDS011;3451;52.476;13.316;2023-12-20T14:26:43;1.13;;;0.80;;
6825;SDS011;3451;52.476;13.316;2023-12-20T14:29:09;1.73;;;0.70;;
6825;SDS011;3451;52.476;13.316;2023-12-20T14:31:35;1.23;;;0.70;;
6825;SDS011;3451;52.476;13.316;2023-12-20T14:34:03;1.67;;;0.70;;
6825;SDS011;3451;52.476;13.316;2023-12-20T14:36:31;2.83;;;1.20;;
6825;SDS011;3451;52.476;13.316;2023-12-20T14:38:58;1.10;;;0.70;;
6825;SDS011;3451;52.476;13.316;2023-12-20T14:41:24;1.33;;;0.70;;
6825;SDS011;3451;52.476;13.316;2023-12-20T14:43:51;3.00;;;0.80;;
6825;SDS011;3451;52.476;13.316;2023-12-20T14:46:20;2.70;;;0.90;;
6825;SDS011;3451;52.476;13.316;2023-12-20T14:48:46;6.23;;;1.10;;
6825;SDS011;3451;52.476;13.316;2023-12-20T14:51:14;1.57;;;0.93;;
6825;SDS011;3451;52.476;13.316;2023-12-20T14:53:41;1.93;;;0.90;;
6825;SDS011;3451;52.476;13.316;2023-12-20T14:56:08;1.63;;;0.80;;
6825;SDS011;3451;52.476;13.316;2023-12-20T14:58:34;4.97;;;1.17;;
6825;SDS011;3451;52.476;13.316;2023-12-20T15:01:02;1.63;;;0.90;;
6825;SDS011;3451;52.476;13.316;2023-12-20T15:03:28;3.23;;;1.10;;